createdAt,value
2019-03-23T00:04:00.237Z,7.28
2019-03-23T00:06:30.969Z,7.27
2019-03-23T00:09:01.663Z,7.27
2019-03-23T00:11:31.542Z,7.21
2019-03-23T00:14:01.415Z,7.19
2019-03-23T00:16:31.294Z,7.17
2019-03-23T00:19:01.157Z,7.16
2019-03-23T00:21:31.017Z,7.12
2019-03-23T00:24:00.887Z,7.08
2019-03-23T00:26:30.730Z,7.08
2019-03-23T00:29:00.619Z,7.04
2019-03-23T00:31:30.464Z,7.02
2019-03-23T00:34:00.309Z,7.05
2019-03-23T00:36:30.173Z,7.05
2019-03-23T00:39:00.019Z,7.04
2019-03-23T00:41:29.903Z,7.01
2019-03-23T00:43:59.835Z,6.99
2019-03-23T00:46:29.683Z,6.96
2019-03-23T00:48:59.596Z,6.94
2019-03-23T00:51:48.226Z,6.93
2019-03-23T00:54:18.163Z,6.93
2019-03-23T00:56:48.006Z,6.94
2019-03-23T00:59:17.891Z,6.92
2019-03-23T01:01:47.746Z,6.92
2019-03-23T01:04:17.730Z,6.92
2019-03-23T01:06:52.086Z,6.94
2019-03-23T01:09:19.164Z,6.94
2019-03-23T01:11:49.027Z,6.95
2019-03-23T01:14:18.884Z,6.95
2019-03-23T01:16:48.765Z,6.96
2019-03-23T01:19:18.623Z,6.95
2019-03-23T01:21:48.473Z,6.96
2019-03-23T01:24:18.325Z,6.94
2019-03-23T01:26:48.228Z,6.95
2019-03-23T01:29:18.102Z,6.94
2019-03-23T01:31:47.954Z,6.94
2019-03-23T01:34:17.828Z,6.94
2019-03-23T01:36:47.700Z,6.94
2019-03-23T01:39:17.547Z,6.89
2019-03-23T01:41:47.400Z,6.91
2019-03-23T01:44:17.244Z,6.88
2019-03-23T01:46:47.136Z,6.87
2019-03-23T01:49:16.996Z,6.86
2019-03-23T01:51:46.853Z,6.87
2019-03-23T01:54:16.708Z,6.87
2019-03-23T01:56:46.630Z,6.86
2019-03-23T01:59:16.491Z,6.87
2019-03-23T02:01:46.350Z,6.88
2019-03-23T02:04:16.242Z,6.87
2019-03-23T02:06:46.063Z,6.86
2019-03-23T02:09:15.934Z,6.86
2019-03-23T02:11:45.807Z,6.91
2019-03-23T02:14:15.672Z,6.92
2019-03-23T02:19:41.558Z,6.94
2019-03-23T02:22:11.415Z,6.96
2019-03-23T02:24:41.271Z,6.97
2019-03-23T02:27:11.141Z,7.00
2019-03-23T02:29:41.013Z,6.99
2019-03-23T02:32:10.893Z,6.99
2019-03-23T02:34:40.760Z,7.00
2019-03-23T02:37:10.611Z,6.97
2019-03-23T02:39:40.473Z,6.96
2019-03-23T02:42:10.341Z,6.98
2019-03-23T02:44:40.204Z,6.96
2019-03-23T02:47:10.081Z,6.94
2019-03-23T02:49:39.965Z,6.95
2019-03-23T02:52:09.840Z,6.93
2019-03-23T02:54:39.693Z,6.91
2019-03-23T02:59:44.938Z,6.89
2019-03-23T03:02:14.811Z,6.88
2019-03-23T03:04:44.708Z,6.89
2019-03-23T03:07:14.565Z,6.88
2019-03-23T03:09:44.446Z,6.87
2019-03-23T03:12:14.291Z,6.90
2019-03-23T03:14:44.155Z,6.87
2019-03-23T03:17:14.019Z,6.85
2019-03-23T03:19:43.871Z,6.86
2019-03-23T03:22:13.742Z,6.83
2019-03-23T03:24:43.598Z,6.85
2019-03-23T03:27:13.458Z,6.84
2019-03-23T03:29:43.317Z,6.81
2019-03-23T03:32:13.187Z,6.78
2019-03-23T03:34:43.061Z,6.81
2019-03-23T03:37:12.917Z,6.78
2019-03-23T03:39:42.809Z,6.75
2019-03-23T03:42:12.652Z,6.77
2019-03-23T03:44:42.532Z,6.76
2019-03-23T03:47:12.387Z,6.76
2019-03-23T03:49:42.266Z,6.76
2019-03-23T03:52:12.125Z,6.74
2019-03-23T03:54:42.004Z,6.76
2019-03-23T03:57:11.866Z,6.75
2019-03-23T03:59:41.746Z,6.74
2019-03-23T04:02:11.632Z,6.73
2019-03-23T04:04:41.482Z,6.69
2019-03-23T04:07:30.158Z,6.69
2019-03-23T04:10:00.011Z,6.69
2019-03-23T04:12:29.871Z,6.67
2019-03-23T04:14:59.738Z,6.67
2019-03-23T04:17:29.569Z,6.67
2019-03-23T04:19:59.444Z,6.68
2019-03-23T04:22:29.333Z,6.69
2019-03-23T04:24:59.177Z,6.65
2019-03-23T04:27:29.065Z,6.69
2019-03-23T04:29:58.925Z,6.69
2019-03-23T04:32:28.767Z,6.71
2019-03-23T04:34:58.640Z,6.68
2019-03-23T04:37:28.885Z,6.66
2019-03-23T04:39:58.757Z,6.66
2019-03-23T04:42:28.604Z,6.67
2019-03-23T04:44:58.453Z,6.68
2019-03-23T04:47:28.354Z,6.68
2019-03-23T04:49:58.203Z,6.66
2019-03-23T04:52:28.067Z,6.67
2019-03-23T04:54:57.928Z,6.66
2019-03-23T04:57:27.781Z,6.67
2019-03-23T04:59:57.694Z,6.67
2019-03-23T05:02:27.600Z,6.69
2019-03-23T05:04:57.442Z,6.70
2019-03-23T05:07:27.304Z,6.70
2019-03-23T05:09:57.165Z,6.71
2019-03-23T05:12:27.033Z,6.69
2019-03-23T05:14:56.885Z,6.51
2019-03-23T05:17:26.745Z,6.72
2019-03-23T05:19:56.638Z,6.70
2019-03-23T05:22:26.549Z,6.73
2019-03-23T05:24:56.423Z,6.72
2019-03-23T05:27:26.380Z,6.74
2019-03-23T05:29:56.203Z,6.76
2019-03-23T05:32:26.090Z,6.77
2019-03-23T05:34:55.953Z,6.77
2019-03-23T05:37:25.805Z,6.83
2019-03-23T05:39:55.667Z,6.81
2019-03-23T05:42:25.520Z,6.80
2019-03-23T05:44:55.368Z,6.80
2019-03-23T05:47:25.235Z,6.82
2019-03-23T05:49:55.077Z,6.84
2019-03-23T05:52:25.002Z,6.85
2019-03-23T05:54:54.851Z,6.85
2019-03-23T05:57:24.686Z,6.85
2019-03-23T05:59:54.541Z,6.84
2019-03-23T06:02:24.398Z,6.89
2019-03-23T06:04:54.248Z,6.90
2019-03-23T06:07:24.103Z,6.92
2019-03-23T06:09:53.956Z,6.94
2019-03-23T06:12:23.881Z,6.95
2019-03-23T06:14:53.810Z,6.97
2019-03-23T06:17:23.689Z,6.98
2019-03-23T06:19:53.542Z,6.98
2019-03-23T06:22:23.408Z,7.00
2019-03-23T06:24:53.267Z,6.99
2019-03-23T06:27:23.107Z,6.98
2019-03-23T06:29:53.067Z,6.92
2019-03-23T06:32:22.993Z,6.94
2019-03-23T06:34:52.939Z,6.93
2019-03-23T06:37:22.800Z,6.96
2019-03-23T06:39:52.661Z,6.93
2019-03-23T06:42:22.525Z,6.96
2019-03-23T06:44:52.371Z,6.98
2019-03-23T06:47:22.226Z,6.99
2019-03-23T06:49:52.122Z,6.99
2019-03-23T06:52:21.958Z,7.01
2019-03-23T06:54:51.811Z,7.03
2019-03-23T06:57:21.728Z,7.03
2019-03-23T07:00:10.716Z,7.07
2019-03-23T07:02:40.571Z,7.10
2019-03-23T07:05:49.554Z,7.14
2019-03-23T07:08:19.404Z,7.18
2019-03-23T07:10:49.268Z,7.22
2019-03-23T07:13:19.125Z,7.31
2019-03-23T07:15:49.266Z,7.33
2019-03-23T07:18:19.134Z,7.35
2019-03-23T07:20:49.134Z,7.39
2019-03-23T07:23:18.965Z,7.47
2019-03-23T07:25:48.829Z,7.48
2019-03-23T07:28:18.823Z,7.46
2019-03-23T07:30:48.732Z,7.48
2019-03-23T07:33:18.615Z,7.48
2019-03-23T07:35:48.506Z,7.44
2019-03-23T07:38:18.407Z,7.44
2019-03-23T07:40:48.439Z,7.42
2019-03-23T07:43:18.315Z,7.38
2019-03-23T07:45:48.182Z,7.41
2019-03-23T07:48:18.066Z,7.41
2019-03-23T07:50:47.905Z,7.43
2019-03-23T07:53:17.748Z,7.36
2019-03-23T07:55:47.697Z,7.32
2019-03-23T07:58:17.572Z,7.35
2019-03-23T08:00:47.413Z,7.36
2019-03-23T08:03:17.261Z,7.37
2019-03-23T08:05:47.088Z,7.30
2019-03-23T08:08:16.918Z,7.28
2019-03-23T08:10:46.766Z,7.31
2019-03-23T08:13:16.637Z,7.31
2019-03-23T08:15:46.537Z,7.37
2019-03-23T08:18:16.373Z,7.38
2019-03-23T08:20:46.247Z,7.35
2019-03-23T08:23:16.130Z,7.31
2019-03-23T08:25:46.010Z,7.31
2019-03-23T08:28:15.870Z,7.34
2019-03-23T08:30:45.797Z,7.35
2019-03-23T08:33:15.663Z,7.35
2019-03-23T08:35:45.586Z,7.41
2019-03-23T08:38:15.480Z,7.44
2019-03-23T08:40:45.340Z,7.39
2019-03-23T08:43:15.520Z,7.35
2019-03-23T08:45:45.386Z,7.32
2019-03-23T08:48:15.272Z,7.32
2019-03-23T08:50:45.132Z,7.32
2019-03-23T08:53:33.737Z,7.19
2019-03-23T08:56:03.689Z,7.19
2019-03-23T08:58:31.249Z,7.15
2019-03-23T09:01:01.655Z,7.19
2019-03-23T09:03:31.777Z,7.22
2019-03-23T09:06:01.622Z,7.31
2019-03-23T09:08:31.537Z,7.37
2019-03-23T09:11:01.387Z,7.43
2019-03-23T09:13:40.301Z,7.50
2019-03-23T09:16:06.370Z,7.52
2019-03-23T09:18:54.899Z,7.59
2019-03-23T09:21:24.738Z,7.68
2019-03-23T09:23:54.656Z,7.75
2019-03-23T09:26:24.510Z,7.80
2019-03-23T09:28:54.329Z,7.84
2019-03-23T09:31:24.201Z,7.84
2019-03-23T09:33:54.094Z,7.84
2019-03-23T09:36:23.929Z,7.83
2019-03-23T09:38:53.762Z,7.82
2019-03-23T09:41:23.585Z,7.91
2019-03-23T09:43:53.446Z,7.93
2019-03-23T09:46:23.301Z,8.04
2019-03-23T09:48:53.160Z,8.06
2019-03-23T09:51:23.016Z,8.09
2019-03-23T09:53:52.873Z,8.11
2019-03-23T09:56:22.731Z,8.07
2019-03-23T09:58:52.610Z,8.08
2019-03-23T10:01:41.232Z,8.09
2019-03-23T10:04:21.953Z,8.12
2019-03-23T10:06:51.822Z,8.12
2019-03-23T10:12:10.506Z,8.30
2019-03-23T10:14:40.318Z,8.43
2019-03-23T10:17:10.189Z,8.39
2019-03-23T10:19:40.056Z,8.47
2019-03-23T10:22:09.918Z,8.52
2019-03-23T10:24:39.812Z,8.53
2019-03-23T10:27:09.653Z,8.55
2019-03-23T10:29:39.556Z,8.46
2019-03-23T10:32:09.554Z,8.47
2019-03-23T10:34:39.404Z,8.47
2019-03-23T10:37:09.286Z,8.41
2019-03-23T10:39:39.172Z,8.36
2019-03-23T10:42:09.010Z,8.44
2019-03-23T10:44:57.608Z,8.53
2019-03-23T10:47:35.230Z,8.53
2019-03-23T10:50:05.195Z,8.49
2019-03-23T10:52:37.204Z,8.50
2019-03-23T10:58:35.072Z,8.43
2019-03-23T11:01:15.628Z,8.42
2019-03-23T11:03:56.450Z,8.39
2019-03-23T11:06:29.856Z,8.39
2019-03-23T11:09:18.490Z,8.45
2019-03-23T11:11:48.330Z,8.45
2019-03-23T11:14:18.162Z,8.50
2019-03-23T11:16:48.026Z,8.51
2019-03-23T11:19:17.872Z,8.63
2019-03-23T11:21:58.346Z,8.66
2019-03-23T11:24:39.200Z,8.60
2019-03-23T11:27:09.046Z,8.60
2019-03-23T11:29:57.677Z,8.51
2019-03-23T11:32:27.536Z,8.51
2019-03-23T11:34:57.388Z,8.48
2019-03-23T11:37:27.307Z,8.46
2019-03-23T11:39:57.183Z,8.45
2019-03-23T11:42:50.270Z,8.48
2019-03-23T11:45:17.542Z,8.54
2019-03-23T11:48:06.151Z,8.59
2019-03-23T11:50:35.974Z,8.59
2019-03-23T11:53:05.793Z,8.52
2019-03-23T11:55:35.636Z,8.56
2019-03-23T11:58:05.499Z,8.56
2019-03-23T12:00:35.339Z,8.60
2019-03-23T12:03:05.205Z,8.60
2019-03-23T12:05:34.990Z,8.61
2019-03-23T12:08:04.806Z,8.54
2019-03-23T12:11:02.536Z,8.58
2019-03-23T12:13:25.002Z,8.58
2019-03-23T12:16:13.605Z,8.50
2019-03-23T12:18:43.423Z,8.50
2019-03-23T12:21:13.244Z,8.50
2019-03-23T12:23:43.109Z,8.55
2019-03-23T12:26:12.924Z,8.51
2019-03-23T12:28:42.730Z,8.45
2019-03-23T12:31:12.554Z,8.49
2019-03-23T12:34:01.145Z,8.55
2019-03-23T12:36:31.004Z,8.55
2019-03-23T12:39:00.798Z,8.56
2019-03-23T12:41:49.414Z,8.67
2019-03-23T12:44:19.205Z,8.67
2019-03-23T12:46:49.054Z,8.66
2019-03-23T12:49:18.870Z,8.73
2019-03-23T12:51:48.686Z,8.67
2019-03-23T12:54:18.508Z,8.66
2019-03-23T12:56:48.326Z,8.75
2019-03-23T12:59:18.158Z,8.68
2019-03-23T13:02:06.777Z,8.54
2019-03-23T13:04:36.604Z,8.54
2019-03-23T13:07:06.452Z,8.42
2019-03-23T13:09:36.257Z,8.48
2019-03-23T13:12:06.153Z,8.49
2019-03-23T13:14:36.029Z,8.44
2019-03-23T13:17:05.866Z,8.32
2019-03-23T13:19:54.478Z,8.43
2019-03-23T13:22:24.303Z,8.43
2019-03-23T13:25:05.504Z,8.45
2019-03-23T13:27:35.383Z,8.45
2019-03-23T13:30:44.315Z,8.47
2019-03-23T13:33:34.294Z,8.44
2019-03-23T13:36:04.240Z,8.44
2019-03-23T13:38:34.102Z,8.42
2019-03-23T13:41:03.982Z,8.29
2019-03-23T13:43:33.847Z,8.32
2019-03-23T13:46:03.720Z,8.31
2019-03-23T13:48:33.566Z,8.34
2019-03-23T13:51:03.408Z,8.36
2019-03-23T13:53:52.017Z,8.36
2019-03-23T13:56:21.966Z,8.36
2019-03-23T13:58:51.791Z,8.31
2019-03-23T14:01:40.405Z,8.24
2019-03-23T14:04:29.086Z,8.22
2019-03-23T14:06:58.971Z,8.22
2019-03-23T14:09:47.600Z,8.22
2019-03-23T14:12:17.467Z,8.21
2019-03-23T14:14:47.311Z,8.21
2019-03-23T14:17:17.190Z,8.26
2019-03-23T14:19:47.029Z,8.12
2019-03-23T14:22:16.922Z,8.15
2019-03-23T14:24:46.916Z,8.16
2019-03-23T14:27:16.759Z,8.24
2019-03-23T14:29:46.583Z,8.26
2019-03-23T14:32:16.436Z,8.26
2019-03-23T14:34:46.282Z,8.12
2019-03-23T14:37:34.879Z,8.18
2019-03-23T14:43:00.908Z,8.14
2019-03-23T14:45:30.824Z,8.23
2019-03-23T14:48:19.491Z,8.24
2019-03-23T14:50:49.418Z,8.24
2019-03-23T14:53:19.294Z,8.16
2019-03-23T14:55:49.240Z,8.06
2019-03-23T14:58:19.133Z,7.98
2019-03-23T15:00:48.994Z,8.08
2019-03-23T15:03:37.606Z,7.93
2019-03-23T15:06:07.403Z,7.93
2019-03-23T15:08:37.239Z,7.95
2019-03-23T15:11:07.065Z,7.89
2019-03-23T15:13:36.881Z,7.85
2019-03-23T15:16:06.767Z,7.84
2019-03-23T15:18:36.617Z,7.78
2019-03-23T15:21:06.446Z,7.76
2019-03-23T15:23:36.283Z,7.84
2019-03-23T15:26:06.184Z,7.77
2019-03-23T15:28:36.021Z,7.77
2019-03-23T15:31:05.838Z,7.72
2019-03-23T15:33:35.668Z,7.72
2019-03-23T15:36:05.535Z,7.75
2019-03-23T15:38:54.135Z,7.64
2019-03-23T15:41:24.842Z,7.64
2019-03-23T15:43:55.653Z,7.58
2019-03-23T15:46:25.551Z,7.62
2019-03-23T15:48:55.377Z,7.63
2019-03-23T15:51:25.349Z,7.58
2019-03-23T15:54:14.077Z,7.59
2019-03-23T15:56:43.901Z,7.57
2019-03-23T15:59:13.733Z,7.44
2019-03-23T16:01:43.571Z,7.45
2019-03-23T16:04:13.446Z,7.43
2019-03-23T16:06:43.246Z,7.47
2019-03-23T16:09:13.081Z,7.39
2019-03-23T16:11:42.944Z,7.33
2019-03-23T16:14:12.769Z,7.24
2019-03-23T16:16:42.605Z,7.31
2019-03-23T16:19:12.436Z,7.27
2019-03-23T16:21:42.266Z,7.18
2019-03-23T16:24:12.111Z,7.15
2019-03-23T16:26:42.026Z,7.13
2019-03-23T16:31:47.621Z,7.03
2019-03-23T16:34:17.457Z,6.94
2019-03-23T16:36:47.263Z,6.89
2019-03-23T16:39:17.134Z,6.87
2019-03-23T16:41:46.964Z,6.82
2019-03-23T16:44:16.789Z,6.79
2019-03-23T16:46:46.688Z,6.73
2019-03-23T16:49:16.491Z,6.67
2019-03-23T16:51:48.082Z,6.60
2019-03-23T16:54:17.939Z,6.55
2019-03-23T16:56:47.786Z,6.53
2019-03-23T16:59:17.624Z,6.49
2019-03-23T17:01:47.465Z,6.45
2019-03-23T17:04:17.362Z,6.44
2019-03-23T17:06:47.257Z,6.37
2019-03-23T17:09:17.089Z,6.34
2019-03-23T17:11:46.937Z,6.30
2019-03-23T17:14:37.044Z,6.28
2019-03-23T17:17:06.941Z,6.25
2019-03-23T17:19:36.754Z,6.18
2019-03-23T17:22:06.665Z,6.18
2019-03-23T17:24:36.490Z,6.13
2019-03-23T17:27:06.570Z,6.11
2019-03-23T17:29:36.435Z,6.07
2019-03-23T17:32:06.291Z,6.01
2019-03-23T17:34:36.109Z,5.99
2019-03-23T17:37:05.946Z,5.97
2019-03-23T17:39:35.781Z,5.93
2019-03-23T17:42:05.660Z,5.93
2019-03-23T17:44:35.534Z,5.91
2019-03-23T17:47:05.355Z,5.88
2019-03-23T17:49:35.250Z,5.84
2019-03-23T17:52:05.179Z,5.82
2019-03-23T17:54:53.895Z,5.82
2019-03-23T17:57:23.742Z,5.82
2019-03-23T17:59:53.556Z,5.79
2019-03-23T18:02:23.384Z,5.77
2019-03-23T18:04:53.205Z,5.72
2019-03-23T18:07:23.033Z,5.82
2019-03-23T18:09:52.879Z,5.83
2019-03-23T18:12:22.725Z,5.78
2019-03-23T18:14:52.556Z,5.76
2019-03-23T18:17:22.408Z,5.75
2019-03-23T18:19:52.234Z,5.74
2019-03-23T18:22:22.070Z,5.73
2019-03-23T18:27:40.729Z,5.68
2019-03-23T18:33:18.914Z,5.65
2019-03-23T18:36:07.591Z,5.64
2019-03-23T18:38:37.447Z,5.62
2019-03-23T18:41:07.396Z,5.63
2019-03-23T18:43:37.229Z,5.63
2019-03-23T18:46:07.066Z,5.61
2019-03-23T18:48:36.919Z,5.60
2019-03-23T18:51:06.766Z,5.60
2019-03-23T18:53:36.612Z,5.57
2019-03-23T18:56:06.517Z,5.56
2019-03-23T18:58:36.341Z,5.56
2019-03-23T19:01:06.170Z,5.55
2019-03-23T19:03:36.004Z,5.55
2019-03-23T19:06:05.923Z,5.55
2019-03-23T19:08:35.785Z,5.50
2019-03-23T19:11:05.706Z,5.47
2019-03-23T19:13:38.044Z,5.47
2019-03-23T19:16:07.153Z,5.47
2019-03-23T19:18:38.682Z,5.50
2019-03-23T19:21:10.806Z,5.52
2019-03-23T19:23:41.764Z,5.51
2019-03-23T19:26:11.614Z,5.52
2019-03-23T19:29:01.910Z,5.51
2019-03-23T19:31:31.774Z,5.50
2019-03-23T19:34:01.609Z,5.47
2019-03-23T19:36:31.546Z,5.49
2019-03-23T19:39:01.377Z,5.51
2019-03-23T19:41:31.276Z,5.51
2019-03-23T19:44:19.998Z,5.48
2019-03-23T19:46:49.877Z,5.50
2019-03-23T19:49:21.551Z,5.50
2019-03-23T19:51:51.593Z,5.52
2019-03-23T19:54:21.748Z,5.53
2019-03-23T19:56:51.763Z,5.54
2019-03-23T19:59:21.782Z,5.55
2019-03-23T20:01:51.687Z,5.56
2019-03-23T20:04:21.759Z,5.54
2019-03-23T20:06:51.841Z,5.52
2019-03-23T20:09:21.719Z,5.51
2019-03-23T20:11:51.530Z,5.48
2019-03-23T20:14:21.397Z,5.20
2019-03-23T20:16:51.323Z,5.43
2019-03-23T20:19:21.151Z,5.41
2019-03-23T20:21:51.006Z,5.37
2019-03-23T20:24:24.049Z,5.40
2019-03-23T20:26:53.883Z,5.38
2019-03-23T20:29:23.778Z,5.36
2019-03-23T20:31:53.685Z,5.35
2019-03-23T20:34:23.567Z,5.34
2019-03-23T20:36:53.391Z,5.33
2019-03-23T20:39:23.318Z,5.35
2019-03-23T20:41:53.250Z,5.36
2019-03-23T20:44:23.165Z,5.34
2019-03-23T20:46:53.111Z,5.34
2019-03-23T20:52:18.588Z,5.31
2019-03-23T20:54:48.667Z,5.29
2019-03-23T20:57:37.836Z,5.30
2019-03-23T21:00:08.968Z,5.35
2019-03-23T21:02:38.815Z,5.35
2019-03-23T21:05:08.756Z,5.35
2019-03-23T21:07:38.568Z,5.35
2019-03-23T21:10:08.507Z,5.31
2019-03-23T21:12:38.327Z,5.29
2019-03-23T21:15:47.205Z,5.31
2019-03-23T21:18:17.049Z,5.29
2019-03-23T21:20:46.894Z,5.31
2019-03-23T21:23:16.738Z,5.34
2019-03-23T21:25:46.578Z,5.33
2019-03-23T21:28:16.426Z,5.34
2019-03-23T21:30:46.246Z,5.36
2019-03-23T21:33:16.081Z,5.38
2019-03-23T21:35:45.906Z,5.35
2019-03-23T21:38:15.730Z,5.37
2019-03-23T21:40:45.559Z,5.38
2019-03-23T21:43:15.373Z,5.36
2019-03-23T21:45:45.184Z,5.34
2019-03-23T21:48:15.003Z,5.33
2019-03-23T21:50:47.663Z,5.33
2019-03-23T21:53:16.374Z,5.29
2019-03-23T21:55:46.208Z,5.29
2019-03-23T21:58:16.023Z,5.32
2019-03-23T22:00:45.852Z,5.32
2019-03-23T22:03:15.684Z,5.32
2019-03-23T22:05:45.515Z,5.32
2019-03-23T22:08:15.355Z,5.33
2019-03-23T22:13:34.026Z,5.29
2019-03-23T22:16:05.250Z,5.25
2019-03-23T22:18:35.399Z,5.24
2019-03-23T22:21:05.285Z,5.27
2019-03-23T22:23:35.112Z,5.28
2019-03-23T22:26:04.958Z,5.27
2019-03-23T22:28:34.832Z,5.25
2019-03-23T22:31:04.653Z,5.23
2019-03-23T22:33:34.480Z,5.21
2019-03-23T22:36:04.312Z,5.21
2019-03-23T22:38:34.125Z,5.20
2019-03-23T22:41:03.937Z,5.18
2019-03-23T22:43:33.767Z,5.17
2019-03-23T22:46:03.581Z,5.14
2019-03-23T22:48:33.398Z,5.14
2019-03-23T22:51:03.271Z,5.12
2019-03-23T22:53:33.124Z,5.10
2019-03-23T22:56:02.964Z,5.09
2019-03-23T22:58:32.797Z,5.10
2019-03-23T23:03:39.481Z,5.09
2019-03-23T23:06:09.284Z,5.07
2019-03-23T23:08:39.106Z,5.08
2019-03-23T23:11:08.920Z,5.07
2019-03-23T23:13:38.733Z,5.07
2019-03-23T23:16:08.553Z,5.06
2019-03-23T23:18:38.377Z,5.06
2019-03-23T23:21:08.207Z,5.04
2019-03-23T23:23:38.026Z,5.03
2019-03-23T23:26:07.857Z,5.02
2019-03-23T23:31:12.752Z,5.03
2019-03-23T23:33:42.577Z,5.02
2019-03-23T23:36:12.404Z,4.99
2019-03-23T23:38:42.225Z,4.98
2019-03-23T23:41:12.054Z,5.01
2019-03-23T23:43:41.867Z,5.00
2019-03-23T23:46:11.692Z,4.98
2019-03-23T23:48:50.946Z,5.00
2019-03-23T23:51:31.842Z,4.97
2019-03-23T23:54:01.672Z,4.97
2019-03-23T23:56:31.598Z,4.96
2019-03-23T23:59:01.421Z,4.93
